Time;durP1;ratioP1;P1;durP2;ratioP2;P2;SDS_P1;SDS_P2;PMS_P1;PMS_P2;Temp;Humidity;BMP_temperature;BMP_pressure;BME280_temperature;BME280_humidity;BME280_pressure;Samples;Min_cycle;Max_cycle;Signal;HPM_P1;HPM_P2
2022/09/08 00:04:48;;;;;;;22.07;12.58;;;;;;;12.98;82.48;98946.34;4280975;80;21554;-84
2022/09/08 00:11:06;;;;;;;22.77;13.15;;;;;;;12.86;82.75;98948.87;4236575;80;21541;-84
2022/09/08 00:17:25;;;;;;;17.37;11.35;;;;;;;12.79;83.09;98936.52;4272958;80;21032;-84
2022/09/08 00:23:26;;;;;;;20.60;12.13;;;;;;;12.70;82.98;98938.07;4254218;80;21007;-83
2022/09/08 00:29:27;;;;;;;20.27;11.63;;;;;;;12.55;83.00;98940.80;4257869;80;21071;-84
2022/09/08 00:35:31;;;;;;;23.77;12.78;;;;;;;12.54;83.03;98946.06;4269350;80;21194;-83
2022/09/08 00:41:36;;;;;;;21.68;12.73;;;;;;;12.57;82.70;98943.15;4267349;80;21122;-84
2022/09/08 00:54:06;;;;;;;18.17;11.28;;;;;;;12.51;83.04;98936.47;4240579;81;21004;-84
2022/09/08 01:00:11;;;;;;;22.75;12.98;;;;;;;12.48;83.86;98938.62;4266598;80;21043;-84
2022/09/08 01:13:10;;;;;;;18.23;10.03;;;;;;;12.44;84.03;98935.86;4266471;80;21934;-83
2022/09/08 01:19:30;;;;;;;21.80;12.07;;;;;;;12.41;83.81;98938.02;4269129;81;21039;-84
2022/09/08 01:26:15;;;;;;;20.80;11.83;;;;;;;12.35;83.53;98926.42;4251261;82;22256;-84
2022/09/08 01:32:20;;;;;;;20.15;11.93;;;;;;;12.31;83.13;98916.00;4269497;80;21138;-84
2022/09/08 01:38:22;;;;;;;27.20;12.47;;;;;;;12.23;83.46;98922.06;4286232;80;21466;-84
2022/09/08 01:44:25;;;;;;;22.02;12.03;;;;;;;12.23;84.05;98928.92;4265319;80;21041;-83
2022/09/08 01:50:26;;;;;;;22.27;12.85;;;;;;;12.28;84.10;98916.20;4259364;80;21057;-83
2022/09/08 01:56:42;;;;;;;21.68;12.03;;;;;;;12.28;83.96;98909.91;4249496;80;21036;-84
2022/09/08 02:02:44;;;;;;;21.27;11.63;;;;;;;12.16;83.99;98896.56;4290161;80;21025;-84
2022/09/08 02:08:57;;;;;;;20.48;11.43;;;;;;;12.14;83.95;98910.66;4273816;80;21006;-83
2022/09/08 02:15:08;;;;;;;20.48;11.55;;;;;;;12.12;84.23;98912.23;4252109;80;21524;-83
2022/09/08 02:21:18;;;;;;;19.65;11.10;;;;;;;12.04;83.59;98905.15;4258862;80;21456;-83
2022/09/08 02:27:20;;;;;;;21.82;11.45;;;;;;;12.00;83.75;98898.84;4276070;80;21037;-84
2022/09/08 02:33:29;;;;;;;18.62;10.68;;;;;;;11.90;83.68;98909.20;4299198;81;21039;-84
2022/09/08 02:39:31;;;;;;;20.95;10.55;;;;;;;11.89;83.68;98901.55;4290327;80;21075;-83
2022/09/08 02:45:40;;;;;;;22.55;10.60;;;;;;;11.91;83.85;98897.84;4293328;80;21027;-84
2022/09/08 02:51:47;;;;;;;18.80;10.70;;;;;;;11.86;83.55;98891.36;4250303;80;21045;-84
2022/09/08 02:57:54;;;;;;;17.90;10.00;;;;;;;11.75;83.80;98866.41;4267915;80;22032;-84
2022/09/08 03:03:55;;;;;;;;;;;;;;;11.56;84.07;98859.86;4271913;80;21036;-84
2022/09/08 03:09:57;;;;;;;22.48;11.18;;;;;;;11.55;84.52;98853.58;4267261;80;20123;-83
2022/09/08 03:16:13;;;;;;;24.52;11.25;;;;;;;11.42;84.03;98850.16;4273705;80;21071;-85
2022/09/08 03:22:14;;;;;;;22.35;11.40;;;;;;;11.32;84.07;98839.38;4266838;80;29186;-83
2022/09/08 03:28:28;;;;;;;21.70;10.85;;;;;;;11.26;84.63;98855.19;4236632;82;21021;-83
2022/09/08 03:34:55;;;;;;;21.40;11.28;;;;;;;11.19;84.96;98860.03;4237026;81;21092;-84
2022/09/08 03:40:57;;;;;;;20.17;11.03;;;;;;;11.13;84.81;98862.13;4235608;81;21685;-84
2022/09/08 03:46:59;;;;;;;18.02;11.30;;;;;;;11.22;85.36;98868.05;4236719;81;21067;-83
2022/09/08 03:53:05;;;;;;;21.85;11.40;;;;;;;11.21;85.53;98852.22;4226961;81;21596;-84
2022/09/08 03:59:07;;;;;;;15.53;7.27;;;;;;;11.20;85.63;98858.85;4218946;82;21055;-83
2022/09/08 04:05:11;;;;;;;26.85;11.08;;;;;;;11.15;85.48;98874.88;4232110;82;21893;-84
2022/09/08 04:11:15;;;;;;;17.23;10.13;;;;;;;11.12;85.61;98870.16;4185668;81;30512;-83
2022/09/08 04:17:18;;;;;;;22.82;11.48;;;;;;;11.06;85.83;98852.70;4245351;81;21512;-83
2022/09/08 04:23:21;;;;;;;23.27;10.93;;;;;;;11.07;85.89;98864.45;4247447;81;21078;-84
2022/09/08 04:36:00;;;;;;;19.87;10.72;;;;;;;11.03;86.02;98865.00;4251883;81;21931;-84
2022/09/08 04:42:08;;;;;;;17.30;10.17;;;;;;;11.01;86.09;98862.64;4243365;81;21174;-83
2022/09/08 04:48:18;;;;;;;16.50;9.68;;;;;;;10.99;85.98;98858.12;4266278;81;21062;-84
2022/09/08 04:54:22;;;;;;;16.35;9.93;;;;;;;11.02;86.23;98851.88;4258405;81;21141;-84
2022/09/08 05:00:25;;;;;;;17.87;10.28;;;;;;;11.07;86.23;98846.05;4252930;81;21158;-84
2022/09/08 05:06:35;;;;;;;21.75;10.08;;;;;;;11.17;86.49;98853.34;4263794;81;21019;-83
2022/09/08 05:12:53;;;;;;;18.07;9.68;;;;;;;11.27;86.74;98849.31;4258847;81;21114;-83
2022/09/08 05:19:06;;;;;;;17.73;9.10;;;;;;;11.36;86.85;98850.33;4250556;81;21037;-83
2022/09/08 05:25:12;;;;;;;23.70;9.50;;;;;;;11.44;86.81;98844.52;4248642;81;21053;-83
2022/09/08 05:31:28;;;;;;;17.45;8.85;;;;;;;11.57;87.05;98847.14;4271835;81;21624;-83
2022/09/08 05:44:38;;;;;;;15.70;8.78;;;;;;;11.84;86.66;98852.55;4235237;81;21020;-85
2022/09/08 05:50:45;;;;;;;17.12;9.30;;;;;;;12.04;86.63;98861.25;4275357;81;21013;-84
2022/09/08 05:56:58;;;;;;;18.52;9.75;;;;;;;12.22;86.53;98864.81;4256852;81;21154;-84
2022/09/08 06:03:01;;;;;;;22.22;9.33;;;;;;;12.30;86.04;98860.34;4252576;81;21031;-84
2022/09/08 06:09:12;;;;;;;19.20;9.50;;;;;;;12.37;85.97;98845.84;4248514;81;21578;-84
2022/09/08 06:15:20;;;;;;;18.55;9.60;;;;;;;12.53;86.08;98836.05;4249947;81;21007;-84
2022/09/08 06:21:54;;;;;;;20.10;9.88;;;;;;;12.76;86.02;98839.80;4255100;81;21087;-84
2022/09/08 06:28:33;;;;;;;18.95;10.05;;;;;;;13.14;86.01;98836.23;4252057;81;21058;-84
2022/09/08 06:41:20;;;;;;;18.17;10.38;;;;;;;13.73;85.46;98820.76;4175145;84;21127;-85
2022/09/08 06:47:28;;;;;;;15.85;9.58;;;;;;;13.97;85.05;98828.09;4131875;84;21080;-84
2022/09/08 06:54:00;;;;;;;15.50;10.45;;;;;;;14.20;84.80;98830.52;4099743;84;21676;-84
2022/09/08 07:00:27;;;;;;;24.47;11.05;;;;;;;14.43;84.54;98831.39;4115754;84;21102;-84
2022/09/08 07:13:27;;;;;;;18.62;10.40;;;;;;;14.93;84.50;98816.03;4124810;84;21145;-85
2022/09/08 07:19:50;;;;;;;17.82;10.55;;;;;;;15.24;84.40;98812.18;4059977;85;21069;-85
2022/09/08 07:26:19;;;;;;;22.20;11.33;;;;;;;15.57;83.88;98803.17;4146283;84;22112;-85
2022/09/08 07:32:44;;;;;;;20.48;10.50;;;;;;;15.86;83.73;98799.47;4232824;81;21277;-85
2022/09/08 07:38:56;;;;;;;18.70;10.05;;;;;;;16.12;83.14;98791.80;4145822;83;21679;-85
2022/09/08 07:51:55;;;;;;;21.52;11.30;;;;;;;16.75;82.74;98789.47;4126394;83;21046;-83
2022/09/08 07:58:28;;;;;;;20.52;11.03;;;;;;;17.17;82.41;98786.55;3922112;88;21240;-84
2022/09/08 08:11:14;;;;;;;19.80;10.90;;;;;;;18.14;81.85;98784.96;4009942;87;21111;-86
2022/09/08 08:24:07;;;;;;;19.98;9.98;;;;;;;19.00;80.38;98768.63;4019171;87;20137;-85
2022/09/08 08:36:50;;;;;;;17.95;9.28;;;;;;;19.52;79.44;98749.17;4262923;81;21496;-85
2022/09/08 08:43:17;;;;;;;18.30;9.63;;;;;;;19.87;79.20;98744.58;4147062;83;21093;-85
2022/09/08 08:50:29;;;;;;;17.87;9.90;;;;;;;20.24;78.60;98745.23;4117596;85;21064;-85
2022/09/08 09:32:39;;;;;;;12.00;8.75;;;;;;;23.44;73.55;98710.09;4065611;81;20999;-85
2022/09/08 09:39:10;;;;;;;15.63;9.70;;;;;;;24.19;72.09;98704.78;4265549;81;21059;-86
2022/09/08 09:45:51;;;;;;;15.83;8.83;;;;;;;24.99;71.10;98699.80;4258895;81;21090;-87
2022/09/08 09:52:17;;;;;;;11.75;7.58;;;;;;;25.70;70.04;98686.41;4218580;81;21676;-86
2022/09/08 09:59:18;;;;;;;15.15;8.38;;;;;;;26.39;68.61;98676.67;4264672;81;21053;-87
2022/09/08 10:06:00;;;;;;;11.38;7.85;;;;;;;27.07;67.19;98688.30;4241416;82;21052;-87
2022/09/08 10:26:53;;;;;;;9.95;7.83;;;;;;;28.63;62.30;98669.50;4252690;82;21085;-86
2022/09/08 10:33:06;;;;;;;11.00;7.42;;;;;;;28.69;60.40;98666.84;4265616;81;21671;-86
2022/09/08 10:39:31;;;;;;;13.55;7.92;;;;;;;29.12;58.95;98652.69;4242056;81;21027;-86
2022/09/08 10:45:47;;;;;;;10.97;7.10;;;;;;;29.45;58.67;98645.08;4248068;81;20995;-87
2022/09/08 10:52:24;;;;;;;;;;;;;;;30.09;58.04;98651.14;4251786;81;21058;-87
2022/09/08 10:58:43;;;;;;;11.18;8.35;;;;;;;30.19;56.59;98634.84;4246108;81;20141;-86
2022/09/08 11:05:12;;;;;;;9.48;7.42;;;;;;;30.52;57.16;98631.20;4232141;81;21246;-86
2022/09/08 11:25:43;;;;;;;;;;;;;;;30.68;55.17;98602.09;4055796;86;21709;-86
2022/09/08 11:39:46;;;;;;;8.23;7.12;;;;;;;29.36;53.43;98589.58;4003983;83;21174;-87
2022/09/08 11:46:17;;;;;;;8.38;6.92;;;;;;;28.83;53.92;98591.23;4172484;83;21021;-89
2022/09/08 11:52:59;;;;;;;8.13;7.33;;;;;;;28.43;54.49;98573.91;4199526;82;21132;-88
2022/09/08 12:06:38;;;;;;;7.97;7.17;;;;;;;27.89;54.87;98566.09;4018834;86;21149;-87
2022/09/08 12:13:20;;;;;;;9.83;8.83;;;;;;;27.70;55.33;98569.74;4009855;86;21081;-87
2022/09/08 12:19:57;;;;;;;13.13;8.00;;;;;;;27.67;55.83;98551.84;4011692;86;21438;-86
2022/09/08 12:26:33;;;;;;;13.55;9.48;;;;;;;27.54;56.30;98557.10;4039949;84;21565;-86
2022/09/08 12:33:22;;;;;;;11.90;9.18;;;;;;;27.40;56.75;98552.39;4247939;81;21069;-87
2022/09/08 12:47:23;;;;;;;18.65;11.38;;;;;;;27.41;57.34;98537.84;4187483;83;21004;-89
2022/09/08 12:53:48;;;;;;;10.28;9.10;;;;;;;27.22;57.28;98528.81;4178527;83;21743;-87
2022/09/08 13:07:10;;;;;;;12.13;9.75;;;;;;;27.12;57.80;98506.40;4251684;81;21034;-87
2022/09/08 13:13:46;;;;;;;10.25;9.25;;;;;;;27.17;58.25;98495.84;4241590;81;21089;-86
2022/09/08 13:41:27;;;;;;;11.25;10.15;;;;;;;27.05;58.68;98468.28;4242876;81;21072;-88
2022/09/08 13:48:14;;;;;;;10.55;9.45;;;;;;;26.89;58.66;98461.13;4243317;81;21034;-87
2022/09/08 13:55:01;;;;;;;15.88;10.98;;;;;;;26.54;58.74;98466.11;4256026;81;21069;-88
2022/09/08 14:01:27;;;;;;;12.82;10.55;;;;;;;26.30;58.90;98455.77;4268692;81;21076;-86
2022/09/08 14:07:27;;;;;;;14.20;11.00;;;;;;;26.21;59.22;98442.67;4256009;81;21373;-87
2022/09/08 14:13:37;;;;;;;10.58;9.58;;;;;;;26.39;59.38;98431.13;4255325;81;21683;-86
2022/09/08 14:19:50;;;;;;;11.63;10.48;;;;;;;26.41;59.26;98411.77;4272736;81;21009;-85
2022/09/08 14:26:14;;;;;;;15.65;11.73;;;;;;;26.34;59.53;98399.59;4251147;81;21052;-87
2022/09/08 14:32:39;;;;;;;15.35;10.30;;;;;;;26.13;59.65;98397.45;4241717;81;21060;-85
2022/09/08 14:39:11;;;;;;;11.30;10.23;;;;;;;25.94;59.68;98393.38;4238939;81;21060;-87
2022/09/08 14:46:01;;;;;;;10.80;9.78;;;;;;;25.65;60.08;98382.31;4246877;81;21077;-87
2022/09/08 14:52:49;;;;;;;11.60;10.43;;;;;;;25.76;60.34;98379.64;4274911;81;21033;-86
2022/09/08 14:59:16;;;;;;;10.82;9.85;;;;;;;25.96;60.62;98381.05;4263500;81;21055;-87
2022/09/08 15:05:35;;;;;;;13.10;10.13;;;;;;;26.07;60.65;98371.39;4258124;81;21503;-87
2022/09/08 15:11:40;;;;;;;14.07;10.18;;;;;;;26.01;60.70;98370.53;4229641;81;21014;-88
2022/09/08 15:18:02;;;;;;;11.90;10.15;;;;;;;26.02;60.89;98381.91;4269928;81;21201;-88
2022/09/08 15:30:47;;;;;;;10.68;9.58;;;;;;;25.65;61.33;98360.54;4254645;81;21070;-87
2022/09/08 15:44:12;;;;;;;12.75;10.55;;;;;;;25.52;61.32;98352.48;4147262;83;21647;-88
2022/09/08 15:50:37;;;;;;;12.78;9.90;;;;;;;25.36;61.74;98353.65;4268072;81;21048;-87
2022/09/08 16:11:17;;;;;;;12.70;11.28;;;;;;;24.98;62.71;98336.41;4183837;81;21121;-87
2022/09/08 16:17:25;;;;;;;14.93;11.03;;;;;;;24.83;63.11;98323.71;4278550;81;21006;-89
2022/09/08 16:44:54;;;;;;;26.62;14.68;;;;;;;24.18;65.17;98323.53;3830120;90;21708;-83
2022/09/08 16:51:04;;;;;;;25.27;16.02;;;;;;;23.99;66.10;98329.16;3978145;85;21151;-83
2022/09/08 16:57:46;;;;;;;22.75;14.63;;;;;;;23.36;68.24;98321.27;4152791;83;21577;-84
2022/09/08 17:03:53;;;;;;;16.82;14.58;;;;;;;22.88;70.19;98326.04;4248064;81;21066;-83
2022/09/08 17:10:22;;;;;;;17.95;14.68;;;;;;;22.62;72.76;98317.92;4255916;81;21050;-86
2022/09/08 17:16:57;;;;;;;17.25;14.70;;;;;;;22.44;73.93;98320.77;4269672;81;21010;-85
2022/09/08 17:23:18;;;;;;;16.42;13.98;;;;;;;22.28;74.82;98315.55;4127235;84;21074;-85
2022/09/08 17:29:48;;;;;;;29.02;19.62;;;;;;;22.15;75.68;98314.95;4126658;83;21096;-85
2022/09/08 17:36:16;;;;;;;21.60;16.12;;;;;;;22.13;76.75;98318.84;4145824;83;21072;-86
2022/09/08 18:04:06;;;;;;;20.90;16.35;;;;;;;21.65;79.35;98406.91;3830374;88;10000029;-84
2022/09/08 18:10:15;;;;;;;18.98;15.40;;;;;;;21.32;80.81;98443.50;3981444;86;21132;-85
2022/09/08 18:16:28;;;;;;;16.05;14.35;;;;;;;21.17;81.72;98472.52;4095659;85;22054;-85
2022/09/08 18:23:04;;;;;;;37.23;28.52;;;;;;;21.03;81.93;98489.02;3974830;88;21159;-82
2022/09/08 18:29:29;;;;;;;13.38;11.30;;;;;;;21.11;82.78;98500.03;4142387;83;21122;-82
2022/09/08 18:35:55;;;;;;;11.10;9.63;;;;;;;21.10;81.17;98482.55;4254677;81;21924;-82
2022/09/08 18:42:56;;;;;;;11.65;9.55;;;;;;;20.77;81.89;98479.23;4255435;81;21009;-83
2022/09/08 18:49:28;;;;;;;13.05;9.13;;;;;;;20.37;84.73;98484.72;4009667;87;21957;-83
2022/09/08 18:55:39;;;;;;;14.55;9.60;;;;;;;19.89;84.50;98531.80;3903768;89;21107;-83
2022/09/08 19:02:17;;;;;;;17.23;10.40;;;;;;;19.60;86.38;98588.71;4259632;81;20967;-85
2022/09/08 19:08:40;;;;;;;16.73;9.35;;;;;;;19.48;87.32;98606.91;4254752;81;21014;-83
2022/09/08 19:15:04;;;;;;;21.77;10.43;;;;;;;19.26;88.03;98600.44;4247963;81;21098;-84
2022/09/08 19:21:06;;;;;;;15.98;10.82;;;;;;;19.08;89.54;98599.39;4261521;81;21132;-84
